Time;durP1;ratioP1;P1;durP2;ratioP2;P2;SDS_P1;SDS_P2;PMS_P1;PMS_P2;Temp;Humidity;BMP_temperature;BMP_pressure;BME280_temperature;BME280_humidity;BME280_pressure;Samples;Min_cycle;Max_cycle;Signal;HPM_P1;HPM_P2
2023/12/16 00:07:37;;;;;;;36.70;24.30;;;;;;;1.40;100.00;101096.48;434700;1258;140320;-63
2023/12/16 00:17:44;;;;;;;34.90;22.40;;;;;;;1.42;100.00;101095.27;433946;1255;139433;-63
2023/12/16 00:27:50;;;;;;;34.00;21.20;;;;;;;1.42;100.00;101098.53;434449;1255;140161;-63
2023/12/16 00:37:56;;;;;;;33.90;23.20;;;;;;;1.45;100.00;101091.29;434100;1259;140604;-65
2023/12/16 00:48:03;;;;;;;33.70;22.40;;;;;;;1.46;100.00;101101.80;433861;1259;139390;-63
2023/12/16 00:58:08;;;;;;;;;;;;;;;1.48;100.00;101108.36;434346;1259;140417;-64
2023/12/16 01:08:15;;;;;;;35.20;23.50;;;;;;;1.50;100.00;101121.31;434575;1259;126443;-63
2023/12/16 01:18:22;;;;;;;40.40;25.70;;;;;;;1.52;100.00;101126.65;434609;1259;141630;-64
2023/12/16 01:28:28;;;;;;;37.30;22.60;;;;;;;1.58;100.00;101128.19;435127;1256;140175;-64
2023/12/16 01:38:34;;;;;;;31.70;18.30;;;;;;;1.63;100.00;101123.35;434114;1258;142004;-64
2023/12/16 01:48:42;;;;;;;32.10;18.60;;;;;;;1.65;100.00;101113.33;433957;1259;140338;-60
2023/12/16 01:58:50;;;;;;;30.30;18.70;;;;;;;1.65;100.00;101109.35;434999;1258;139850;-63
2023/12/16 02:08:56;;;;;;;33.40;20.60;;;;;;;1.67;100.00;101125.41;434065;1257;140540;-64
2023/12/16 02:19:04;;;;;;;31.10;19.50;;;;;;;1.69;100.00;101137.33;434924;1259;140806;-63
2023/12/16 02:29:10;;;;;;;33.10;19.50;;;;;;;1.71;100.00;101145.42;435062;1258;139970;-63
2023/12/16 02:39:18;;;;;;;31.90;19.60;;;;;;;1.72;100.00;101142.14;434996;1259;140138;-64
2023/12/16 02:49:24;;;;;;;30.20;19.30;;;;;;;1.75;100.00;101140.92;436798;1259;139277;-64
2023/12/16 02:59:31;;;;;;;34.20;21.90;;;;;;;1.81;100.00;101136.25;436639;1255;140137;-64
2023/12/16 03:09:37;;;;;;;34.10;21.70;;;;;;;1.86;100.00;101142.63;435259;1258;140084;-64
2023/12/16 03:19:44;;;;;;;33.90;22.00;;;;;;;1.85;100.00;101138.83;434674;1260;140411;-63
2023/12/16 03:29:51;;;;;;;33.80;23.10;;;;;;;1.88;100.00;101134.67;434128;1259;140148;-63
2023/12/16 03:39:57;;;;;;;30.30;21.30;;;;;;;1.92;100.00;101136.91;434012;1260;139380;-63
2023/12/16 03:50:04;;;;;;;27.70;18.60;;;;;;;1.98;100.00;101134.64;434785;1259;140356;-63
2023/12/16 04:00:12;;;;;;;28.80;19.30;;;;;;;2.03;100.00;101147.75;435685;1254;140265;-64
2023/12/16 04:10:18;;;;;;;34.60;19.40;;;;;;;2.11;100.00;101158.27;434084;1259;140312;-63
2023/12/16 04:20:26;;;;;;;34.60;22.00;;;;;;;2.19;100.00;101152.02;435123;1258;140533;-63
2023/12/16 04:30:33;;;;;;;37.90;26.00;;;;;;;2.25;100.00;101136.95;433936;1254;140336;-64
2023/12/16 04:40:40;;;;;;;35.60;20.80;;;;;;;2.29;100.00;101147.98;434718;1259;141150;-63
2023/12/16 04:50:47;;;;;;;41.80;22.90;;;;;;;2.33;100.00;101169.23;434285;1260;139642;-64
2023/12/16 05:00:53;;;;;;;41.20;24.70;;;;;;;2.37;100.00;101184.60;434376;1260;140107;-63
2023/12/16 05:10:59;;;;;;;44.00;25.40;;;;;;;2.43;100.00;101185.96;433759;1254;140712;-63
2023/12/16 05:21:06;;;;;;;46.30;26.60;;;;;;;2.48;100.00;101193.20;435796;1258;140189;-63
2023/12/16 05:31:13;;;;;;;39.40;22.90;;;;;;;2.50;100.00;101192.14;435317;1254;140135;-63
2023/12/16 05:41:19;;;;;;;43.60;24.40;;;;;;;2.57;100.00;101197.98;434090;1260;139743;-64
2023/12/16 05:51:25;;;;;;;43.20;24.50;;;;;;;2.61;100.00;101217.00;434995;1259;140292;-63
2023/12/16 06:01:32;;;;;;;42.10;25.50;;;;;;;2.63;100.00;101200.38;434058;1259;140393;-63
2023/12/16 06:11:38;;;;;;;45.20;25.70;;;;;;;2.66;100.00;101200.53;435394;1254;140041;-64
2023/12/16 06:21:44;;;;;;;40.00;23.00;;;;;;;2.72;100.00;101208.45;434143;1254;140257;-64
2023/12/16 06:31:51;;;;;;;39.10;21.20;;;;;;;2.76;100.00;101209.98;434885;1255;140225;-63
2023/12/16 06:41:57;;;;;;;45.90;25.00;;;;;;;2.79;100.00;101225.54;434010;1259;140121;-63
2023/12/16 06:52:03;;;;;;;34.70;23.20;;;;;;;2.86;100.00;101227.23;435641;1259;140192;-63
2023/12/16 07:02:10;;;;;;;35.30;22.00;;;;;;;2.91;100.00;101237.07;435452;1259;139737;-63
2023/12/16 07:12:16;;;;;;;34.60;19.10;;;;;;;2.96;100.00;101239.29;434081;1259;140507;-63
2023/12/16 07:22:22;;;;;;;38.50;22.50;;;;;;;3.00;100.00;101247.73;433873;1258;140292;-63
2023/12/16 07:32:29;;;;;;;35.90;20.70;;;;;;;3.07;100.00;101259.30;436022;1254;139683;-63
2023/12/16 07:42:36;;;;;;;35.10;21.80;;;;;;;3.18;100.00;101258.70;436048;1254;140394;-62
2023/12/16 07:52:47;;;;;;;32.40;21.30;;;;;;;3.28;100.00;101255.88;434412;1259;139485;-63
2023/12/16 08:02:53;;;;;;;38.10;23.40;;;;;;;3.34;100.00;101250.11;435984;1258;140884;-63
2023/12/16 08:13:00;;;;;;;36.10;20.10;;;;;;;3.39;100.00;101258.91;433923;1258;141103;-63
2023/12/16 08:23:08;;;;;;;37.80;20.90;;;;;;;3.43;100.00;101257.83;434869;1254;140220;-63
2023/12/16 08:33:14;;;;;;;32.40;20.60;;;;;;;3.51;100.00;101262.63;434984;1254;140390;-63
2023/12/16 08:43:20;;;;;;;34.70;21.00;;;;;;;3.62;100.00;101279.85;434152;1258;139743;-63
2023/12/16 08:53:27;;;;;;;31.90;20.90;;;;;;;3.70;100.00;101291.56;434054;1255;139378;-64
2023/12/16 09:03:33;;;;;;;34.10;20.70;;;;;;;3.75;100.00;101288.05;436573;1254;140644;-63
2023/12/16 09:13:40;;;;;;;29.80;19.80;;;;;;;3.79;100.00;101289.59;434690;1259;140640;-63
2023/12/16 09:23:47;;;;;;;38.40;24.80;;;;;;;3.92;100.00;101280.80;434076;1258;140535;-63
2023/12/16 09:33:52;;;;;;;;;;;;;;;4.06;100.00;101291.41;435015;1254;141162;-64
2023/12/16 09:43:59;;;;;;;27.50;18.40;;;;;;;4.21;100.00;101287.98;434227;1254;127324;-64
2023/12/16 09:54:06;;;;;;;27.30;18.40;;;;;;;4.32;100.00;101288.57;436134;1254;141413;-65
2023/12/16 10:04:12;;;;;;;29.90;19.80;;;;;;;4.36;100.00;101285.23;435519;1255;141597;-65
2023/12/16 10:14:19;;;;;;;25.40;19.50;;;;;;;4.51;100.00;101285.76;434148;1258;141625;-64
2023/12/16 10:24:25;;;;;;;27.10;17.40;;;;;;;4.57;100.00;101266.42;436293;1254;139346;-65
2023/12/16 10:34:32;;;;;;;25.20;17.70;;;;;;;4.45;100.00;101243.16;435062;1254;140100;-65
2023/12/16 10:44:38;;;;;;;27.10;18.20;;;;;;;4.44;100.00;101249.05;436519;1254;139668;-65
2023/12/16 10:54:48;;;;;;;21.60;15.70;;;;;;;4.57;100.00;101250.83;434204;1254;140381;-64
2023/12/16 11:05:03;;;;;;;25.10;15.80;;;;;;;4.77;100.00;101228.71;436360;1254;140591;-66
2023/12/16 11:15:11;;;;;;;25.10;19.50;;;;;;;4.77;100.00;101222.64;434489;1259;140598;-65
2023/12/16 11:25:22;;;;;;;26.60;16.90;;;;;;;4.69;100.00;101218.40;434845;1256;139764;-64
2023/12/16 11:35:46;;;;;;;29.40;21.60;;;;;;;4.79;100.00;101213.08;434953;1254;139834;-64
2023/12/16 11:45:52;;;;;;;22.00;15.90;;;;;;;4.82;100.00;101211.11;434283;1254;140805;-65
2023/12/16 11:56:00;;;;;;;16.90;13.70;;;;;;;4.79;100.00;101217.41;433959;1255;139660;-64
2023/12/16 12:06:08;;;;;;;21.30;15.20;;;;;;;4.76;100.00;101204.08;435439;1254;140365;-63
2023/12/16 12:16:15;;;;;;;19.60;15.90;;;;;;;4.72;100.00;101194.77;434698;1256;139785;-64
2023/12/16 12:26:23;;;;;;;19.40;15.10;;;;;;;4.71;100.00;101191.66;434351;1257;140227;-63
2023/12/16 12:36:29;;;;;;;18.80;13.60;;;;;;;4.70;100.00;101189.41;435728;1255;139563;-64
2023/12/16 12:46:45;;;;;;;17.90;12.70;;;;;;;4.72;100.00;101176.20;437235;1254;140322;-64
2023/12/16 12:56:51;;;;;;;21.60;14.10;;;;;;;4.71;100.00;101175.86;434488;1254;142945;-64
2023/12/16 13:06:58;;;;;;;17.90;13.50;;;;;;;4.70;100.00;101166.69;434243;1255;139602;-63
2023/12/16 13:17:05;;;;;;;18.50;13.70;;;;;;;4.70;100.00;101151.61;435402;1254;140065;-64
2023/12/16 13:27:11;;;;;;;22.80;15.20;;;;;;;4.67;100.00;101150.94;434706;1257;140417;-65
2023/12/16 13:37:18;;;;;;;15.60;12.30;;;;;;;4.66;100.00;101151.33;434473;1256;139444;-64
2023/12/16 13:47:24;;;;;;;21.00;14.70;;;;;;;4.59;100.00;101134.25;434568;1258;142854;-64
2023/12/16 13:57:31;;;;;;;22.50;15.80;;;;;;;4.50;100.00;101141.12;435717;1255;140237;-65
2023/12/16 14:07:38;;;;;;;25.90;18.10;;;;;;;4.45;100.00;101126.80;434934;1256;139924;-65
2023/12/16 14:17:43;;;;;;;;;;;;;;;4.40;100.00;101123.59;434217;1254;140300;-64
2023/12/16 14:27:50;;;;;;;21.90;16.70;;;;;;;4.38;100.00;101127.77;435610;1255;127030;-65
2023/12/16 14:37:56;;;;;;;24.60;18.40;;;;;;;4.37;100.00;101123.78;434034;1256;139479;-68
2023/12/16 14:48:04;;;;;;;25.30;19.10;;;;;;;4.37;100.00;101121.36;433841;1254;139671;-64
2023/12/16 14:58:10;;;;;;;22.40;16.70;;;;;;;4.34;100.00;101113.25;433992;1256;141700;-65
2023/12/16 15:08:19;;;;;;;30.20;20.80;;;;;;;4.30;100.00;101097.70;436176;1256;139559;-65
2023/12/16 15:18:26;;;;;;;21.20;17.20;;;;;;;4.28;100.00;101092.38;436055;1253;141405;-66
2023/12/16 15:28:32;;;;;;;28.40;17.50;;;;;;;4.27;100.00;101080.23;434841;1253;140976;-65
2023/12/16 15:38:39;;;;;;;29.40;20.50;;;;;;;4.24;100.00;101063.98;434763;1256;141026;-65
2023/12/16 15:48:45;;;;;;;26.10;20.80;;;;;;;4.17;100.00;101054.38;435280;1256;140276;-64
2023/12/16 15:58:52;;;;;;;27.20;18.70;;;;;;;4.08;100.00;101062.98;435008;1256;140353;-61
2023/12/16 16:09:00;;;;;;;23.80;16.10;;;;;;;4.05;100.00;101068.73;435102;1254;140473;-63
2023/12/16 16:19:06;;;;;;;21.80;16.00;;;;;;;4.04;100.00;101067.19;436011;1252;149136;-63
2023/12/16 16:29:14;;;;;;;20.30;14.80;;;;;;;4.03;100.00;101062.70;435853;1255;140729;-62
2023/12/16 16:39:20;;;;;;;25.30;17.20;;;;;;;4.00;100.00;101070.36;436328;1254;141212;-62
2023/12/16 16:49:27;;;;;;;22.10;16.00;;;;;;;3.93;100.00;101069.08;435477;1251;139624;-61
2023/12/16 16:59:33;;;;;;;20.80;14.80;;;;;;;3.81;100.00;101067.84;435975;1254;139723;-62
2023/12/16 17:09:39;;;;;;;22.10;13.10;;;;;;;3.72;100.00;101071.74;435365;1253;139294;-62
2023/12/16 17:19:45;;;;;;;19.40;11.00;;;;;;;3.75;100.00;101091.63;435871;1254;140339;-62
2023/12/16 17:29:52;;;;;;;16.40;11.00;;;;;;;3.81;100.00;101086.02;435383;1254;141208;-63
2023/12/16 17:39:58;;;;;;;15.00;10.80;;;;;;;3.83;100.00;101080.27;435113;1254;140303;-63
2023/12/16 17:50:07;;;;;;;22.00;14.40;;;;;;;3.83;100.00;101077.17;436035;1252;140358;-62
2023/12/16 18:00:16;;;;;;;17.90;10.70;;;;;;;3.76;100.00;101074.83;437134;1253;141208;-62
2023/12/16 18:10:23;;;;;;;17.60;11.60;;;;;;;3.77;100.00;101073.94;436710;1253;139452;-63
2023/12/16 18:20:29;;;;;;;15.70;10.20;;;;;;;3.77;100.00;101078.79;436349;1254;140038;-62
2023/12/16 18:30:35;;;;;;;14.10;10.10;;;;;;;3.77;100.00;101064.40;435175;1251;140228;-63
2023/12/16 18:40:42;;;;;;;22.60;12.70;;;;;;;3.76;100.00;101053.35;438424;1251;139796;-63
2023/12/16 18:50:48;;;;;;;18.00;10.70;;;;;;;3.75;100.00;101050.58;435217;1256;139979;-62
2023/12/16 19:00:54;;;;;;;24.70;14.40;;;;;;;3.75;100.00;101056.12;435541;1255;140026;-62
2023/12/16 19:11:01;;;;;;;20.40;13.70;;;;;;;3.73;100.00;101043.51;434945;1256;139999;-63
2023/12/16 19:21:08;;;;;;;24.90;13.50;;;;;;;3.69;100.00;101034.55;435550;1256;140000;-62
2023/12/16 19:31:14;;;;;;;22.40;12.70;;;;;;;3.66;100.00;101037.70;436506;1255;139724;-62
2023/12/16 19:41:21;;;;;;;19.20;12.00;;;;;;;3.64;100.00;101038.25;435714;1254;141255;-62
2023/12/16 19:51:28;;;;;;;19.70;10.20;;;;;;;3.61;100.00;101040.02;435910;1256;140362;-63
2023/12/16 20:01:34;;;;;;;21.60;10.50;;;;;;;3.61;100.00;101035.67;437695;1251;139946;-62
2023/12/16 20:11:40;;;;;;;14.20;9.70;;;;;;;3.63;100.00;101014.02;434996;1254;140340;-62
2023/12/16 20:21:47;;;;;;;18.30;10.00;;;;;;;3.66;100.00;100996.65;435127;1256;139059;-62
2023/12/16 20:31:53;;;;;;;15.20;8.20;;;;;;;3.69;100.00;100983.27;435321;1256;140669;-62
2023/12/16 20:41:59;;;;;;;13.30;9.40;;;;;;;3.66;100.00;100978.48;435229;1255;139806;-63
2023/12/16 20:52:06;;;;;;;13.10;8.00;;;;;;;3.65;100.00;101014.52;435014;1256;139491;-62
2023/12/16 21:02:13;;;;;;;13.00;9.00;;;;;;;3.61;100.00;101011.42;436208;1256;139744;-62
2023/12/16 21:12:21;;;;;;;13.10;8.00;;;;;;;3.52;100.00;101006.88;435186;1256;140331;-62
2023/12/16 21:22:27;;;;;;;16.70;9.30;;;;;;;3.40;100.00;101017.40;436027;1254;141011;-62
2023/12/16 21:32:33;;;;;;;12.00;10.00;;;;;;;3.28;100.00;100998.14;435355;1255;140134;-61
2023/12/16 21:42:40;;;;;;;17.60;10.50;;;;;;;3.15;100.00;101000.19;437242;1254;140282;-61
2023/12/16 21:52:46;;;;;;;18.00;11.80;;;;;;;3.10;100.00;100986.40;435151;1255;140377;-63
2023/12/16 22:02:53;;;;;;;18.50;12.00;;;;;;;3.04;100.00;100986.63;436623;1255;140802;-61
2023/12/16 22:12:59;;;;;;;17.80;13.40;;;;;;;3.03;100.00;100986.45;435195;1256;139897;-62
2023/12/16 22:23:05;;;;;;;17.70;12.80;;;;;;;3.03;100.00;100963.28;435924;1255;140329;-61
2023/12/16 22:33:11;;;;;;;17.70;12.30;;;;;;;3.03;100.00;100918.64;434971;1251;140022;-62
2023/12/16 22:43:19;;;;;;;15.40;12.60;;;;;;;3.02;100.00;100894.09;435313;1256;139734;-62
2023/12/16 22:53:25;;;;;;;22.10;14.20;;;;;;;3.03;100.00;100894.95;435654;1251;140308;-61
2023/12/16 23:03:31;;;;;;;18.90;14.70;;;;;;;3.05;100.00;100915.33;435077;1256;139535;-62
2023/12/16 23:13:37;;;;;;;16.20;14.10;;;;;;;3.12;100.00;100908.69;435745;1251;140298;-64
2023/12/16 23:23:44;;;;;;;20.80;15.80;;;;;;;3.19;100.00;100911.19;434862;1257;140371;-65
2023/12/16 23:33:50;;;;;;;18.00;12.40;;;;;;;3.27;100.00;100905.04;434902;1256;140721;-65
2023/12/16 23:43:56;;;;;;;17.10;12.60;;;;;;;3.34;100.00;100904.77;435392;1252;140628;-61
2023/12/16 23:54:03;;;;;;;16.00;10.00;;;;;;;3.43;100.00;100904.50;435138;1255;141586;-66
